Time;durP1;ratioP1;P1;durP2;ratioP2;P2;SDS_P1;SDS_P2;PMS_P1;PMS_P2;Temp;Humidity;BMP_temperature;BMP_pressure;BME280_temperature;BME280_humidity;BME280_pressure;Samples;Min_cycle;Max_cycle;Signal;HPM_P1;HPM_P2
2022/04/06 00:01:05;;;;;;;9.35;5.60;;;;;;;;;;10474875;28;20025;-70
2022/04/06 00:06:06;;;;;;;11.45;5.53;;;;;;;;;;10474875;28;20062;-70
2022/04/06 00:11:06;;;;;;;9.33;5.03;;;;;;;;;;10474238;28;20115;-70
2022/04/06 00:16:06;;;;;;;13.13;5.85;;;;;;;;;;10473461;28;20035;-71
2022/04/06 00:21:07;;;;;;;12.30;5.95;;;;;;;;;;10491998;28;20484;-76
2022/04/06 00:26:07;;;;;;;15.93;6.20;;;;;;;;;;10473885;28;20466;-71
2022/04/06 00:31:07;;;;;;;7.97;4.97;;;;;;;;;;10473650;28;20035;-71
2022/04/06 00:36:07;;;;;;;13.52;5.75;;;;;;;;;;10457276;28;20036;-71
2022/04/06 00:41:08;;;;;;;14.00;5.90;;;;;;;;;;10491018;28;20032;-71
2022/04/06 00:46:08;;;;;;;7.85;5.00;;;;;;;;;;10472778;28;20045;-71
2022/04/06 00:51:08;;;;;;;13.15;5.82;;;;;;;;;;10472686;28;20032;-71
2022/04/06 00:56:08;;;;;;;12.73;5.68;;;;;;;;;;10472576;28;20569;-71
2022/04/06 01:01:09;;;;;;;10.30;5.40;;;;;;;;;;10472243;28;20031;-70
2022/04/06 01:06:09;;;;;;;12.10;5.82;;;;;;;;;;10455964;28;20483;-71
2022/04/06 01:11:09;;;;;;;8.25;6.03;;;;;;;;;;10472080;28;20020;-71
2022/04/06 01:16:10;;;;;;;14.35;6.68;;;;;;;;;;10471606;28;20024;-71
2022/04/06 01:21:11;;;;;;;10.43;5.85;;;;;;;;;;10455151;28;20522;-70
2022/04/06 01:26:12;;;;;;;26.95;8.23;;;;;;;;;;10471463;28;20020;-71
2022/04/06 01:31:13;;;;;;;25.90;7.85;;;;;;;;;;10470180;28;20521;-71
2022/04/06 01:36:13;;;;;;;10.90;5.72;;;;;;;;;;10471068;28;20021;-75
2022/04/06 01:41:13;;;;;;;10.25;5.63;;;;;;;;;;10487680;28;20028;-69
2022/04/06 01:46:14;;;;;;;13.80;6.75;;;;;;;;;;10470706;28;20052;-70
2022/04/06 01:56:33;;;;;;;9.88;6.15;;;;;;;;;;10488802;28;20687;-71
2022/04/06 02:01:34;;;;;;;21.33;9.32;;;;;;;;;;10470497;28;20062;-70
2022/04/06 02:06:35;;;;;;;10.68;5.80;;;;;;;;;;10453769;28;20024;-71
2022/04/06 02:11:35;;;;;;;12.93;6.35;;;;;;;;;;10453718;28;20024;-70
2022/04/06 02:16:37;;;;;;;13.27;6.38;;;;;;;;;;10470504;28;20029;-70
2022/04/06 02:21:37;;;;;;;13.80;6.18;;;;;;;;;;10469755;28;20036;-70
2022/04/06 02:26:37;;;;;;;13.40;6.20;;;;;;;;;;10469928;28;20024;-75
2022/04/06 02:31:38;;;;;;;13.27;6.10;;;;;;;;;;10470140;28;20035;-70
2022/04/06 02:36:38;;;;;;;9.45;5.65;;;;;;;;;;10487343;28;20035;-72
2022/04/06 02:41:38;;;;;;;11.98;6.13;;;;;;;;;;10475070;28;20445;-73
2022/04/06 02:46:39;;;;;;;14.93;7.10;;;;;;;;;;10477486;28;20502;-71
2022/04/06 02:51:39;;;;;;;13.05;6.75;;;;;;;;;;10477231;28;20271;-69
2022/04/06 02:56:39;;;;;;;10.48;5.93;;;;;;;;;;10477163;28;20031;-73
2022/04/06 03:01:39;;;;;;;19.35;6.50;;;;;;;;;;10495152;28;20029;-73
2022/04/06 03:06:40;;;;;;;14.00;6.80;;;;;;;;;;10477042;28;20021;-69
2022/04/06 03:11:40;;;;;;;11.70;5.03;;;;;;;;;;10476574;28;20056;-69
2022/04/06 03:16:41;;;;;;;19.33;6.63;;;;;;;;;;10476550;28;20028;-69
2022/04/06 03:21:41;;;;;;;25.88;7.38;;;;;;;;;;10476418;28;20028;-70
2022/04/06 03:26:41;;;;;;;23.80;7.80;;;;;;;;;;10476083;28;20039;-74
2022/04/06 03:31:42;;;;;;;13.35;5.32;;;;;;;;;;10475911;28;20111;-71
2022/04/06 03:36:42;;;;;;;39.00;8.20;;;;;;;;;;10475706;28;20111;-70
2022/04/06 03:41:42;;;;;;;27.57;6.67;;;;;;;;;;10475727;28;20036;-74
2022/04/06 03:46:42;;;;;;;21.10;7.05;;;;;;;;;;10475461;28;20144;-70
2022/04/06 03:51:43;;;;;;;15.17;7.17;;;;;;;;;;10457814;28;20081;-73
2022/04/06 03:56:43;;;;;;;21.03;7.33;;;;;;;;;;10474676;28;20675;-76
2022/04/06 04:01:43;;;;;;;16.23;5.95;;;;;;;;;;10474390;28;20020;-70
2022/04/06 04:06:44;;;;;;;13.05;5.93;;;;;;;;;;10474201;28;20025;-70
2022/04/06 04:11:44;;;;;;;12.70;6.80;;;;;;;;;;10457988;28;20115;-71
2022/04/06 04:16:44;;;;;;;17.67;7.07;;;;;;;;;;10473524;28;20035;-73
2022/04/06 04:21:44;;;;;;;23.35;6.22;;;;;;;;;;10473407;28;20077;-72
2022/04/06 04:26:45;;;;;;;24.83;7.95;;;;;;;;;;10473407;28;20028;-72
2022/04/06 04:31:45;;;;;;;19.05;7.10;;;;;;;;;;10484362;28;20573;-72
2022/04/06 04:36:45;;;;;;;15.35;5.85;;;;;;;;;;10513836;28;20035;-75
2022/04/06 04:41:46;;;;;;;28.13;6.47;;;;;;;;;;10482546;28;20024;-72
2022/04/06 04:46:46;;;;;;;14.02;6.55;;;;;;;;;;10488075;28;20055;-72
2022/04/06 04:51:47;;;;;;;13.43;6.28;;;;;;;;;;10509888;28;20027;-72
2022/04/06 04:56:47;;;;;;;11.18;6.75;;;;;;;;;;10512513;28;20032;-70
2022/04/06 05:01:48;;;;;;;12.30;7.25;;;;;;;;;;10513799;28;20470;-73
2022/04/06 05:06:48;;;;;;;14.82;6.30;;;;;;;;;;10496263;28;20032;-71
2022/04/06 05:11:48;;;;;;;16.20;6.32;;;;;;;;;;10471443;28;20081;-76
2022/04/06 05:16:49;;;;;;;15.48;6.20;;;;;;;;;;10489790;28;20035;-72
2022/04/06 05:21:49;;;;;;;14.48;6.68;;;;;;;;;;10471462;28;20032;-70
2022/04/06 05:26:49;;;;;;;12.50;5.22;;;;;;;;;;10488281;28;20043;-71
2022/04/06 05:31:49;;;;;;;13.52;6.03;;;;;;;;;;10470571;28;20177;-72
2022/04/06 05:36:50;;;;;;;10.93;5.60;;;;;;;;;;10470907;28;20029;-77
2022/04/06 05:41:50;;;;;;;8.57;4.95;;;;;;;;;;10470337;28;20089;-77
2022/04/06 05:46:50;;;;;;;6.10;4.43;;;;;;;;;;10470221;28;20044;-72
2022/04/06 05:51:50;;;;;;;10.70;4.93;;;;;;;;;;10488738;28;20119;-73
2022/04/06 05:56:51;;;;;;;9.88;4.85;;;;;;;;;;10469910;28;20409;-75
2022/04/06 06:01:51;;;;;;;11.48;4.50;;;;;;;;;;10453354;28;20071;-70
2022/04/06 06:06:51;;;;;;;8.35;4.47;;;;;;;;;;10485943;28;20115;-72
2022/04/06 06:11:52;;;;;;;9.70;4.93;;;;;;;;;;10453127;28;20024;-72
2022/04/06 06:16:52;;;;;;;10.00;4.73;;;;;;;;;;10487315;28;20021;-73
2022/04/06 06:21:52;;;;;;;12.17;5.70;;;;;;;;;;10487631;28;20028;-71
2022/04/06 06:26:53;;;;;;;8.20;4.90;;;;;;;;;;10469916;28;20410;-71
2022/04/06 06:31:54;;;;;;;12.13;6.38;;;;;;;;;;10469249;28;20024;-75
2022/04/06 06:36:54;;;;;;;15.25;6.15;;;;;;;;;;10469755;28;20028;-72
2022/04/06 06:41:54;;;;;;;16.42;6.18;;;;;;;;;;10469191;28;20486;-76
2022/04/06 06:46:55;;;;;;;11.60;5.75;;;;;;;;;;10452131;28;20071;-71
2022/04/06 06:51:55;;;;;;;16.43;5.67;;;;;;;;;;10487638;28;20036;-71
2022/04/06 06:56:55;;;;;;;14.90;5.82;;;;;;;;;;10468810;28;20043;-71
2022/04/06 07:01:55;;;;;;;21.85;5.75;;;;;;;;;;10468096;28;20175;-71
2022/04/06 07:06:56;;;;;;;11.80;5.63;;;;;;;;;;10486895;28;20090;-70
2022/04/06 07:11:56;;;;;;;12.25;5.43;;;;;;;;;;10452042;28;20403;-72
2022/04/06 07:16:58;;;;;;;16.08;6.90;;;;;;;;;;10468805;28;20420;-71
2022/04/06 07:21:59;;;;;;;14.25;6.78;;;;;;;;;;10468193;28;20116;-71
2022/04/06 07:26:59;;;;;;;12.80;5.17;;;;;;;;;;10470660;28;20021;-72
2022/04/06 07:31:59;;;;;;;16.30;4.95;;;;;;;;;;10458819;28;20118;-71
2022/04/06 07:36:59;;;;;;;12.38;5.63;;;;;;;;;;10475435;28;20035;-73
2022/04/06 07:42:00;;;;;;;9.18;3.90;;;;;;;;;;10475236;28;20030;-75
2022/04/06 07:47:00;;;;;;;20.47;4.60;;;;;;;;;;10474698;28;20036;-71
2022/04/06 07:52:01;;;;;;;10.10;4.38;;;;;;;;;;10491085;28;20120;-75
2022/04/06 07:57:01;;;;;;;6.03;3.70;;;;;;;;;;10490627;28;20020;-75
2022/04/06 08:02:01;;;;;;;14.00;4.80;;;;;;;;;;10492369;28;20020;-71
2022/04/06 08:07:02;;;;;;;14.77;4.20;;;;;;;;;;10473685;28;20452;-72
2022/04/06 08:12:02;;;;;;;11.40;5.20;;;;;;;;;;10474239;28;20104;-74
2022/04/06 08:17:04;;;;;;;11.80;4.88;;;;;;;;;;10473670;28;20024;-71
2022/04/06 08:22:04;;;;;;;16.60;6.03;;;;;;;;;;10473397;28;20032;-73
2022/04/06 08:27:05;;;;;;;16.88;6.03;;;;;;;;;;10491147;28;20020;-71
2022/04/06 08:32:05;;;;;;;14.80;6.10;;;;;;;;;;10491109;28;20024;-75
2022/04/06 08:37:08;;;;;;;11.90;5.80;;;;;;;;;;10489031;28;20028;-73
2022/04/06 08:42:09;;;;;;;23.00;6.07;;;;;;;;;;10472619;28;20111;-71
2022/04/06 08:47:10;;;;;;;11.35;5.72;;;;;;;;;;10472276;28;20422;-76
2022/04/06 08:52:11;;;;;;;17.80;5.72;;;;;;;;;;10472068;28;20029;-74
2022/04/06 08:57:12;;;;;;;10.48;5.38;;;;;;;;;;10471758;28;20020;-73
2022/04/06 09:02:16;;;;;;;11.50;6.50;;;;;;;;;;10471926;28;20020;-77
2022/04/06 09:07:18;;;;;;;9.38;5.10;;;;;;;;;;10471234;28;20091;-71
2022/04/06 09:12:19;;;;;;;17.33;5.97;;;;;;;;;;10489323;28;20033;-72
2022/04/06 09:17:22;;;;;;;18.05;5.15;;;;;;;;;;10455478;28;20468;-71
2022/04/06 09:22:22;;;;;;;14.13;4.97;;;;;;;;;;10489658;28;20492;-71
2022/04/06 09:27:28;;;;;;;10.18;4.50;;;;;;;;;;10488708;28;20020;-70
2022/04/06 09:32:28;;;;;;;18.73;4.65;;;;;;;;;;10453922;28;20032;-71
2022/04/06 09:37:32;;;;;;;12.75;4.43;;;;;;;;;;10454610;28;20444;-72
2022/04/06 09:42:32;;;;;;;13.15;4.00;;;;;;;;;;10454181;28;20425;-73
2022/04/06 09:47:38;;;;;;;5.00;2.65;;;;;;;;;;10470042;28;20053;-70
2022/04/06 09:52:39;;;;;;;9.70;3.60;;;;;;;;;;10469115;28;20092;-74
2022/04/06 09:57:51;;;;;;;4.75;2.40;;;;;;;;;;10469529;28;20479;-72
2022/04/06 10:03:01;;;;;;;4.75;2.33;;;;;;;;;;10470170;28;20143;-71
2022/04/06 10:08:02;;;;;;;2.63;1.58;;;;;;;;;;10487750;28;20034;-70
2022/04/06 10:13:04;;;;;;;5.53;1.90;;;;;;;;;;10452941;28;20047;-72
2022/04/06 10:18:04;;;;;;;3.45;1.70;;;;;;;;;;10487477;28;20024;-75
2022/04/06 10:23:05;;;;;;;10.37;2.47;;;;;;;;;;10453066;28;20451;-71
2022/04/06 10:28:10;;;;;;;3.88;2.30;;;;;;;;;;10469010;28;20414;-72
2022/04/06 10:33:20;;;;;;;5.65;2.00;;;;;;;;;;10468850;28;20040;-74
2022/04/06 10:38:22;;;;;;;5.50;1.98;;;;;;;;;;10452368;28;20454;-71
2022/04/06 10:43:36;;;;;;;6.47;2.35;;;;;;;;;;10452588;28;20056;-74
2022/04/06 10:48:56;;;;;;;4.85;2.08;;;;;;;;;;10469083;28;20024;-70
2022/04/06 10:53:56;;;;;;;9.35;1.55;;;;;;;;;;10468938;28;20024;-71
2022/04/06 10:58:56;;;;;;;5.05;1.70;;;;;;;;;;10486116;28;20032;-72
2022/04/06 11:04:01;;;;;;;6.32;1.77;;;;;;;;;;10475838;28;20021;-71
2022/04/06 11:14:39;;;;;;;4.68;1.85;;;;;;;;;;10479159;28;20024;-71
2022/04/06 11:19:47;;;;;;;7.85;1.60;;;;;;;;;;10475010;28;20012;-73
2022/04/06 11:24:48;;;;;;;3.95;1.30;;;;;;;;;;10476193;28;20379;-71
2022/04/06 11:29:48;;;;;;;4.10;1.90;;;;;;;;;;10458873;28;20024;-76
2022/04/06 11:34:48;;;;;;;3.85;1.67;;;;;;;;;;10491644;28;20036;-72
2022/04/06 11:39:48;;;;;;;3.23;1.83;;;;;;;;;;10474671;28;20047;-74
2022/04/06 11:44:49;;;;;;;5.63;2.35;;;;;;;;;;10484394;28;20043;-71
2022/04/06 11:49:49;;;;;;;5.30;2.17;;;;;;;;;;10534628;28;20035;-71
2022/04/06 11:54:58;;;;;;;6.45;2.78;;;;;;;;;;10516158;28;20032;-71
2022/04/06 11:59:59;;;;;;;3.97;1.95;;;;;;;;;;10515778;28;20027;-70
2022/04/06 12:05:00;;;;;;;13.53;2.20;;;;;;;;;;10498924;28;20031;-70
2022/04/06 12:10:00;;;;;;;5.88;2.53;;;;;;;;;;10515487;28;20024;-74
2022/04/06 12:15:02;;;;;;;5.60;2.20;;;;;;;;;;10514338;28;20016;-72
2022/04/06 12:20:20;;;;;;;10.18;2.17;;;;;;;;;;10514965;28;20489;-72
2022/04/06 12:41:05;;;;;;;11.82;2.65;;;;;;;;;;10391765;27;20453;-72
2022/04/06 12:46:06;;;;;;;4.88;2.70;;;;;;;;;;10393109;28;20569;-73
2022/04/06 12:51:22;;;;;;;4.60;2.87;;;;;;;;;;10390907;28;20074;-72
2022/04/06 12:56:23;;;;;;;4.72;2.15;;;;;;;;;;10390848;28;20038;-72
2022/04/06 13:01:23;;;;;;;5.13;2.25;;;;;;;;;;10364881;28;20083;-72
2022/04/06 13:06:23;;;;;;;8.95;2.35;;;;;;;;;;10349504;28;20087;-72
2022/04/06 13:11:24;;;;;;;8.68;2.65;;;;;;;;;;10359770;28;20503;-71
2022/04/06 13:16:27;;;;;;;6.22;3.47;;;;;;;;;;10368178;28;20113;-77
2022/04/06 13:21:28;;;;;;;6.93;2.97;;;;;;;;;;10368959;28;20029;-73
2022/04/06 13:26:29;;;;;;;7.78;3.83;;;;;;;;;;10389391;28;20541;-72
2022/04/06 13:31:29;;;;;;;4.60;3.10;;;;;;;;;;10389151;28;20407;-73
2022/04/06 13:36:29;;;;;;;6.07;2.97;;;;;;;;;;10366955;28;20478;-72
2022/04/06 13:41:30;;;;;;;8.38;3.25;;;;;;;;;;10363132;28;20389;-73
2022/04/06 13:46:30;;;;;;;3.00;1.97;;;;;;;;;;10361912;28;20434;-72
2022/04/06 13:51:31;;;;;;;5.47;3.05;;;;;;;;;;10328798;28;20388;-71
2022/04/06 13:56:31;;;;;;;5.32;2.90;;;;;;;;;;10321542;28;20033;-72
2022/04/06 14:01:31;;;;;;;6.88;3.22;;;;;;;;;;10320535;28;20469;-72
2022/04/06 14:06:32;;;;;;;4.20;2.63;;;;;;;;;;10321973;28;20346;-72
2022/04/06 14:11:33;;;;;;;5.03;2.95;;;;;;;;;;10335689;28;20564;-71
2022/04/06 14:16:33;;;;;;;9.77;3.03;;;;;;;;;;10360815;28;20500;-72
2022/04/06 14:21:34;;;;;;;7.27;2.80;;;;;;;;;;10360908;28;20025;-70
2022/04/06 14:26:36;;;;;;;12.80;2.63;;;;;;;;;;10362046;28;20017;-72
2022/04/06 14:31:36;;;;;;;5.18;2.90;;;;;;;;;;10365524;28;20030;-73
2022/04/06 14:36:38;;;;;;;7.97;2.60;;;;;;;;;;10361671;28;20046;-74
2022/04/06 14:41:39;;;;;;;9.88;3.15;;;;;;;;;;10361460;28;20053;-71
2022/04/06 14:46:39;;;;;;;7.27;3.17;;;;;;;;;;10341823;28;20027;-70
2022/04/06 14:51:40;;;;;;;8.93;2.75;;;;;;;;;;10318479;28;20026;-71
2022/04/06 14:56:41;;;;;;;8.77;3.40;;;;;;;;;;10330014;28;20038;-74
2022/04/06 15:01:41;;;;;;;5.72;2.80;;;;;;;;;;10320285;28;20948;-74
2022/04/06 15:06:41;;;;;;;4.53;2.40;;;;;;;;;;10319800;28;20030;-73
2022/04/06 15:11:42;;;;;;;6.38;2.78;;;;;;;;;;10345785;28;20104;-72
2022/04/06 15:16:42;;;;;;;8.73;2.60;;;;;;;;;;10360288;28;20018;-73
2022/04/06 15:21:43;;;;;;;4.53;2.40;;;;;;;;;;10358261;28;20041;-73
2022/04/06 15:26:44;;;;;;;6.20;2.40;;;;;;;;;;10357774;28;20075;-72
2022/04/06 15:31:44;;;;;;;5.83;3.70;;;;;;;;;;10357476;28;20047;-72
2022/04/06 15:42:03;;;;;;;4.47;2.60;;;;;;;;;;10358799;28;20022;-71
2022/04/06 15:47:03;;;;;;;4.18;2.40;;;;;;;;;;10358864;28;20404;-71
2022/04/06 15:52:05;;;;;;;7.60;2.97;;;;;;;;;;10358901;28;20385;-71
2022/04/06 15:57:06;;;;;;;6.22;2.20;;;;;;;;;;10356511;28;20018;-72
2022/04/06 16:02:06;;;;;;;4.57;2.80;;;;;;;;;;10356939;28;20018;-73
2022/04/06 16:07:07;;;;;;;3.63;2.30;;;;;;;;;;10347210;28;20412;-73
2022/04/06 16:12:09;;;;;;;7.15;2.60;;;;;;;;;;10316923;28;20566;-74
2022/04/06 16:17:09;;;;;;;7.35;2.03;;;;;;;;;;10331663;28;20032;-71
2022/04/06 16:22:10;;;;;;;4.07;2.20;;;;;;;;;;10358443;28;20481;-73
2022/04/06 16:27:10;;;;;;;8.80;3.10;;;;;;;;;;10356635;28;20616;-70
2022/04/06 16:32:11;;;;;;;4.95;2.40;;;;;;;;;;10356618;28;20110;-71
2022/04/06 16:37:11;;;;;;;4.47;2.53;;;;;;;;;;10356508;28;20516;-72
2022/04/06 16:42:12;;;;;;;5.43;2.80;;;;;;;;;;10356351;28;20020;-72
2022/04/06 16:47:13;;;;;;;8.07;2.47;;;;;;;;;;10357573;28;20018;-71
2022/04/06 16:57:33;;;;;;;6.60;3.85;;;;;;;;;;10317236;28;20030;-72
2022/04/06 17:02:33;;;;;;;12.70;4.73;;;;;;;;;;10316198;28;20607;-72
2022/04/06 17:07:33;;;;;;;15.48;4.28;;;;;;;;;;10317420;28;20018;-70
2022/04/06 17:12:34;;;;;;;5.25;3.30;;;;;;;;;;10315569;28;20037;-72
2022/04/06 17:17:34;;;;;;;9.23;4.18;;;;;;;;;;10322259;28;20027;-72
2022/04/06 17:22:34;;;;;;;6.07;3.83;;;;;;;;;;10306552;28;20075;-71
2022/04/06 17:27:35;;;;;;;8.85;4.03;;;;;;;;;;10342288;28;20512;-75
2022/04/06 17:32:35;;;;;;;6.03;3.58;;;;;;;;;;10354216;28;20105;-76
2022/04/06 17:37:37;;;;;;;9.50;4.43;;;;;;;;;;10356528;28;20433;-73
2022/04/06 17:42:37;;;;;;;7.03;2.83;;;;;;;;;;10342192;28;20022;-71
2022/04/06 17:47:38;;;;;;;5.80;3.87;;;;;;;;;;10356795;28;20481;-76
2022/04/06 17:52:38;;;;;;;5.55;3.88;;;;;;;;;;10360017;28;20022;-74
2022/04/06 17:57:38;;;;;;;6.82;3.40;;;;;;;;;;10360110;28;20026;-69
2022/04/06 18:02:39;;;;;;;8.97;3.40;;;;;;;;;;10361641;28;20034;-75
2022/04/06 18:07:40;;;;;;;6.00;3.15;;;;;;;;;;10344675;28;20484;-77
2022/04/06 18:17:59;;;;;;;6.05;4.20;;;;;;;;;;10359086;28;20052;-74
2022/04/06 18:23:00;;;;;;;12.17;6.70;;;;;;;;;;10360546;28;20500;-75
2022/04/06 18:28:01;;;;;;;11.60;5.18;;;;;;;;;;10356958;28;20034;-70
2022/04/06 18:33:02;;;;;;;11.82;4.88;;;;;;;;;;10319324;28;20034;-72
2022/04/06 18:38:02;;;;;;;8.80;4.10;;;;;;;;;;10302435;28;20240;-74
2022/04/06 18:43:03;;;;;;;5.28;3.30;;;;;;;;;;10319180;28;20599;-76
2022/04/06 18:48:03;;;;;;;6.32;3.10;;;;;;;;;;10352232;28;20032;-73
2022/04/06 18:53:04;;;;;;;4.23;3.57;;;;;;;;;;10360192;28;20552;-71
2022/04/06 18:58:04;;;;;;;5.78;2.83;;;;;;;;;;10330858;28;20284;-72
2022/04/06 19:03:04;;;;;;;6.17;3.50;;;;;;;;;;10350377;28;20018;-74
2022/04/06 19:08:05;;;;;;;4.10;2.88;;;;;;;;;;10358558;28;20026;-74
2022/04/06 19:13:05;;;;;;;6.65;3.22;;;;;;;;;;10355138;28;20489;-73
2022/04/06 19:18:06;;;;;;;6.37;2.70;;;;;;;;;;10317634;28;20030;-79
2022/04/06 19:23:06;;;;;;;4.15;2.90;;;;;;;;;;10317817;28;20485;-70
2022/04/06 19:28:07;;;;;;;8.03;3.77;;;;;;;;;;10317477;28;20026;-70
2022/04/06 19:33:07;;;;;;;6.50;3.67;;;;;;;;;;10317072;28;20539;-70
2022/04/06 19:38:08;;;;;;;4.13;3.42;;;;;;;;;;10345604;28;20095;-73
2022/04/06 19:43:08;;;;;;;5.82;3.40;;;;;;;;;;10358203;28;20025;-75
2022/04/06 19:48:08;;;;;;;7.78;4.28;;;;;;;;;;10357560;28;20416;-74
2022/04/06 19:53:09;;;;;;;6.27;3.87;;;;;;;;;;10357485;28;20081;-70
2022/04/06 19:58:10;;;;;;;5.43;3.45;;;;;;;;;;10356586;28;20026;-71
2022/04/06 20:03:11;;;;;;;5.00;3.78;;;;;;;;;;10335847;28;20061;-69
2022/04/06 20:08:11;;;;;;;7.18;3.30;;;;;;;;;;10316809;28;20084;-71
2022/04/06 20:13:11;;;;;;;10.10;4.03;;;;;;;;;;10318145;28;20034;-73
2022/04/06 20:18:11;;;;;;;4.82;3.10;;;;;;;;;;10315818;28;20150;-70
2022/04/06 20:23:12;;;;;;;5.05;3.03;;;;;;;;;;10319390;28;20114;-74
2022/04/06 20:28:12;;;;;;;6.60;3.43;;;;;;;;;;10358282;28;20029;-71
2022/04/06 20:33:13;;;;;;;5.93;3.33;;;;;;;;;;10331455;28;20565;-69
2022/04/06 20:38:13;;;;;;;4.55;3.05;;;;;;;;;;10315212;28;20049;-74
2022/04/06 20:43:14;;;;;;;5.88;3.10;;;;;;;;;;10316142;28;20029;-69
2022/04/06 20:48:15;;;;;;;8.90;2.80;;;;;;;;;;10316508;28;20118;-74
2022/04/06 20:53:16;;;;;;;8.23;3.53;;;;;;;;;;10323067;28;20022;-69
2022/04/06 20:58:17;;;;;;;7.63;3.17;;;;;;;;;;10323258;28;20116;-73
2022/04/06 21:03:18;;;;;;;8.38;3.42;;;;;;;;;;10360046;28;20021;-74
2022/04/06 21:08:18;;;;;;;7.30;3.20;;;;;;;;;;10363137;28;20030;-70
2022/04/06 21:13:18;;;;;;;4.60;3.15;;;;;;;;;;10362330;28;20026;-72
2022/04/06 21:18:21;;;;;;;5.80;3.47;;;;;;;;;;10360947;28;20025;-71
2022/04/06 21:23:21;;;;;;;4.55;3.05;;;;;;;;;;10321431;28;20037;-69
2022/04/06 21:28:22;;;;;;;5.28;3.70;;;;;;;;;;10322521;28;20141;-74
2022/04/06 21:33:22;;;;;;;9.10;3.70;;;;;;;;;;10321728;28;20026;-70
2022/04/06 21:38:22;;;;;;;5.20;3.30;;;;;;;;;;10322095;28;20085;-68
2022/04/06 21:43:22;;;;;;;5.37;3.17;;;;;;;;;;10322152;28;20499;-70
2022/04/06 21:48:25;;;;;;;9.13;3.60;;;;;;;;;;10322043;28;20551;-70
2022/04/06 21:53:25;;;;;;;5.28;3.20;;;;;;;;;;10322355;28;20026;-71
2022/04/06 21:58:26;;;;;;;9.80;3.20;;;;;;;;;;10321382;28;20022;-69
2022/04/06 22:03:29;;;;;;;4.80;3.13;;;;;;;;;;10321468;28;20022;-68
2022/04/06 22:08:30;;;;;;;5.82;3.55;;;;;;;;;;10321092;28;20099;-70
2022/04/06 22:13:30;;;;;;;7.68;3.70;;;;;;;;;;10321406;28;20026;-70
2022/04/06 22:18:31;;;;;;;9.70;3.50;;;;;;;;;;10320677;28;20034;-70
2022/04/06 22:23:31;;;;;;;8.60;3.55;;;;;;;;;;10321260;28;20030;-69
2022/04/06 22:28:33;;;;;;;4.85;3.25;;;;;;;;;;10320401;28;20469;-69
2022/04/06 22:33:33;;;;;;;5.05;3.00;;;;;;;;;;10320128;28;20023;-70
2022/04/06 22:38:35;;;;;;;5.72;3.33;;;;;;;;;;10321546;28;20043;-70
2022/04/06 22:43:35;;;;;;;4.80;2.95;;;;;;;;;;10320242;28;20023;-69
2022/04/06 22:48:35;;;;;;;5.65;3.20;;;;;;;;;;10321282;28;20042;-66
2022/04/06 22:53:36;;;;;;;4.65;3.20;;;;;;;;;;10319547;28;20019;-64
2022/04/06 22:58:36;;;;;;;6.32;3.38;;;;;;;;;;10321243;28;20471;-70
2022/04/06 23:03:36;;;;;;;6.72;4.00;;;;;;;;;;10319755;28;20025;-73
2022/04/06 23:08:37;;;;;;;6.78;4.80;;;;;;;;;;10319186;28;20026;-73
2022/04/06 23:13:38;;;;;;;5.88;3.55;;;;;;;;;;10319894;28;20061;-69
2022/04/06 23:18:38;;;;;;;12.53;3.63;;;;;;;;;;10319009;28;20518;-69
2022/04/06 23:23:38;;;;;;;7.55;3.40;;;;;;;;;;10320148;28;20019;-69
2022/04/06 23:28:38;;;;;;;5.07;3.00;;;;;;;;;;10318916;28;20107;-73
2022/04/06 23:33:40;;;;;;;8.73;3.30;;;;;;;;;;10318824;28;20023;-68
2022/04/06 23:38:40;;;;;;;10.32;3.17;;;;;;;;;;10318295;28;20046;-73
2022/04/06 23:43:41;;;;;;;7.07;3.53;;;;;;;;;;10318683;28;20063;-69
2022/04/06 23:48:41;;;;;;;5.85;4.15;;;;;;;;;;10320107;28;20030;-70
2022/04/06 23:53:41;;;;;;;8.88;3.67;;;;;;;;;;10318808;28;20532;-76
2022/04/06 23:58:42;;;;;;;9.38;4.15;;;;;;;;;;10317572;28;20500;-70
